ZYTX/SHE METAR and TAF weather

Enter ICAO airport designator
Station Type Date Time Source
ZYTX METAR 2023/02/06 00:30 UTC NOAA

ZYTX 060030Z 05003MPS 7000 NSC M07/M12 Q1025 NOSIG


Station Type Date Time Source
ZYTX Decoded METAR 2023/02/06 00:30 UTC NOAA

Shenyang / Taokian, China (ZYTX) 41-48N 123-24E
Feb 05, 2023 - 07:30 PM EST / 2023.02.06 0030 UTC
Wind: from the NE (050 degrees) at 7 MPH (6 KT):0
Visibility: 4 mile(s):0
Temperature: 19 F (-7 C)
Windchill: 10 F (-12 C):1
Dew Point: 10 F (-12 C)
Relative Humidity: 67%
Pressure (altimeter): 30.27 in. Hg (1025 hPa)
ob: ZYTX 060030Z 05003MPS 7000 NSC M07/M12 Q1025 NOSIG
cycle: 0

Station Type Date Time Source
ZYTX TAF 2023/02/05 18:03 UTC NOAA

TAF ZYTX 051501Z 0518/0618 02004MPS 6000 NSC TX02/0606Z TNM11/0618Z

Example: see airport list